Time;durP1;ratioP1;P1;durP2;ratioP2;P2;SDS_P1;SDS_P2;PMS_P1;PMS_P2;Temp;Humidity;BMP_temperature;BMP_pressure;BME280_temperature;BME280_humidity;BME280_pressure;Samples;Min_cycle;Max_cycle;Signal;HPM_P1;HPM_P2
2021/06/12 00:02:42;;;;;;;9.95;6.90;;;;;;;13.44;68.24;99746.84;260400;1107;103084;-70
2021/06/12 00:07:48;;;;;;;13.67;7.97;;;;;;;13.38;68.94;99743.30;260884;1107;103075;-72
2021/06/12 00:12:53;;;;;;;13.78;7.75;;;;;;;13.49;68.90;99747.67;261310;1107;103117;-72
2021/06/12 00:17:59;;;;;;;11.98;8.25;;;;;;;13.51;68.85;99743.94;260181;1107;103064;-71
2021/06/12 00:23:03;;;;;;;7.95;7.15;;;;;;;13.49;69.22;99739.64;260972;1107;102956;-72
2021/06/12 00:28:08;;;;;;;8.68;6.35;;;;;;;13.39;69.03;99742.23;260827;1107;103040;-73
2021/06/12 00:33:13;;;;;;;8.08;7.38;;;;;;;13.40;69.45;99740.38;262385;1107;103062;-72
2021/06/12 00:38:18;;;;;;;12.45;8.00;;;;;;;13.45;69.57;99732.39;262388;1103;103071;-72
2021/06/12 00:43:23;;;;;;;9.80;6.47;;;;;;;13.38;69.35;99737.13;262223;1107;102952;-72
2021/06/12 00:48:28;;;;;;;9.53;7.50;;;;;;;13.32;69.55;99735.46;261764;1107;103564;-72
2021/06/12 00:53:37;;;;;;;13.45;7.73;;;;;;;13.30;69.65;99729.55;260564;1107;104272;-72
2021/06/12 00:58:43;;;;;;;7.33;6.65;;;;;;;13.36;69.69;99728.55;262644;1107;101242;-75
2021/06/12 01:03:50;;;;;;;9.20;8.28;;;;;;;13.33;69.89;99734.40;261314;1107;103237;-74
2021/06/12 01:08:56;;;;;;;;;;;;;;;13.39;69.97;99726.17;261303;1108;103092;-74
2021/06/12 01:14:07;;;;;;;8.53;7.53;;;;;;;13.41;70.57;99724.05;261108;1107;102979;-74
2021/06/12 01:19:50;;;;;;;14.20;8.18;;;;;;;13.39;70.46;99711.98;261193;1107;103089;-73
2021/06/12 01:25:07;;;;;;;10.03;7.95;;;;;;;13.34;70.39;99703.89;260068;1107;102983;-74
2021/06/12 01:30:22;;;;;;;;;;;;;;;13.46;70.65;99717.91;261482;1107;102962;-74
2021/06/12 01:35:35;;;;;;;9.83;8.38;;;;;;;13.48;70.24;99716.59;260579;1107;103110;-78
2021/06/12 01:40:42;;;;;;;12.38;9.38;;;;;;;13.45;71.10;99708.30;260493;1108;102996;-72
2021/06/12 01:45:47;;;;;;;6.70;5.85;;;;;;;13.45;70.81;99710.97;260283;1107;103379;-71
2021/06/12 01:50:58;;;;;;;12.03;7.98;;;;;;;13.51;71.19;99707.25;260679;1108;103092;-73
2021/06/12 01:56:06;;;;;;;11.10;7.93;;;;;;;13.70;71.40;99707.70;260677;1108;103071;-72
2021/06/12 02:01:13;;;;;;;7.98;7.18;;;;;;;13.76;71.17;99712.01;260285;1107;103020;-73
2021/06/12 02:06:21;;;;;;;14.40;7.40;;;;;;;13.72;71.45;99708.25;261275;1107;102948;-72
2021/06/12 02:11:26;;;;;;;9.30;7.10;;;;;;;13.77;71.45;99706.39;260498;1103;103043;-74
2021/06/12 02:16:31;;;;;;;9.78;8.10;;;;;;;13.80;71.73;99705.89;260009;1107;103038;-74
2021/06/12 02:21:37;;;;;;;14.60;8.60;;;;;;;13.94;71.79;99711.63;261510;1107;105371;-75
2021/06/12 02:26:45;;;;;;;8.50;7.58;;;;;;;14.08;72.06;99712.78;260923;1107;103163;-71
2021/06/12 02:32:13;;;;;;;10.23;9.15;;;;;;;14.15;71.50;99718.73;261156;1107;102988;-72
2021/06/12 02:37:18;;;;;;;10.75;8.00;;;;;;;14.23;72.23;99713.96;261143;1107;103095;-72
2021/06/12 02:42:23;;;;;;;7.78;6.78;;;;;;;14.26;72.04;99708.08;260452;1107;103402;-71
2021/06/12 02:47:31;;;;;;;10.60;8.23;;;;;;;14.31;71.46;99722.33;261985;1107;103017;-69
2021/06/12 02:52:38;;;;;;;14.30;11.35;;;;;;;14.34;71.11;99705.73;261653;1103;104180;-72
2021/06/12 02:57:46;;;;;;;12.60;10.35;;;;;;;14.23;71.30;99701.36;261997;1107;102944;-72
2021/06/12 03:02:53;;;;;;;7.95;7.08;;;;;;;14.21;71.42;99695.45;262162;1107;102961;-73
2021/06/12 03:07:59;;;;;;;9.45;8.30;;;;;;;14.25;71.00;99693.87;262024;1107;103072;-72
2021/06/12 03:13:07;;;;;;;11.70;8.60;;;;;;;14.35;71.53;99696.62;260178;1107;103016;-72
2021/06/12 03:18:12;;;;;;;10.43;8.53;;;;;;;14.42;71.78;99702.56;261330;1107;103099;-70
2021/06/12 03:23:19;;;;;;;12.58;10.35;;;;;;;14.54;72.42;99721.14;260834;1107;103071;-71
2021/06/12 03:28:25;;;;;;;15.05;9.40;;;;;;;14.69;72.39;99715.83;261186;1107;103016;-71
2021/06/12 03:33:31;;;;;;;11.55;10.43;;;;;;;14.78;71.87;99721.50;262013;1107;103075;-72
2021/06/12 03:38:36;;;;;;;10.05;9.15;;;;;;;14.83;71.91;99713.48;261051;1107;103067;-71
2021/06/12 03:43:42;;;;;;;8.47;7.57;;;;;;;14.87;71.67;99711.08;261130;1107;103020;-71
2021/06/12 03:48:50;;;;;;;8.88;8.05;;;;;;;14.90;71.60;99707.88;260858;1102;103046;-70
2021/06/12 03:53:58;;;;;;;9.60;8.43;;;;;;;14.86;71.68;99688.80;260143;1107;104105;-70
2021/06/12 03:59:04;;;;;;;8.60;7.90;;;;;;;14.97;71.61;99690.45;260350;1103;103078;-71
2021/06/12 04:04:09;;;;;;;;;;;;;;;15.19;71.55;99692.11;260444;1107;103057;-70
2021/06/12 04:09:14;;;;;;;14.35;12.65;;;;;;;15.46;71.81;99700.73;260188;1107;103372;-71
2021/06/12 04:14:19;;;;;;;15.28;11.15;;;;;;;15.88;71.73;99699.70;260129;1107;103033;-71
2021/06/12 04:19:25;;;;;;;13.23;10.88;;;;;;;16.54;71.57;99699.53;260072;1108;103017;-71
2021/06/12 04:24:32;;;;;;;17.33;12.43;;;;;;;17.20;71.28;99700.05;259985;1107;103110;-71
2021/06/12 04:29:38;;;;;;;13.48;10.93;;;;;;;17.73;70.98;99692.95;260752;1107;102971;-71
2021/06/12 04:34:44;;;;;;;16.50;12.40;;;;;;;17.99;70.29;99692.74;260084;1101;103075;-71
2021/06/12 04:39:50;;;;;;;13.55;11.05;;;;;;;18.99;68.78;99687.26;260566;1103;103073;-71
2021/06/12 04:44:56;;;;;;;13.53;10.50;;;;;;;18.90;68.55;99690.92;261052;1103;102969;-71
2021/06/12 04:50:04;;;;;;;10.68;9.88;;;;;;;18.94;68.10;99675.75;260855;1107;102959;-72
2021/06/12 04:55:11;;;;;;;9.93;9.00;;;;;;;19.24;67.58;99675.31;261802;1107;103566;-72
2021/06/12 05:00:15;;;;;;;9.88;7.55;;;;;;;20.33;66.17;99674.80;262163;1107;102914;-71
2021/06/12 05:05:20;;;;;;;11.53;10.30;;;;;;;20.76;65.85;99678.03;262596;1107;102623;-72
2021/06/12 05:10:25;;;;;;;11.13;10.03;;;;;;;21.07;65.25;99672.75;261983;1101;102944;-72
2021/06/12 05:15:30;;;;;;;8.33;7.65;;;;;;;23.71;61.82;99672.81;261487;1107;103090;-72
2021/06/12 05:20:36;;;;;;;8.85;8.05;;;;;;;26.20;57.92;99674.99;260519;1107;103045;-72
2021/06/12 05:25:40;;;;;;;9.05;8.15;;;;;;;29.66;53.98;99678.27;260654;1107;103069;-72
2021/06/12 05:30:45;;;;;;;8.00;7.03;;;;;;;32.36;48.89;99679.29;261212;1108;103064;-73
2021/06/12 05:35:51;;;;;;;7.83;7.20;;;;;;;33.99;45.54;99668.21;260775;1107;102971;-73
2021/06/12 05:40:55;;;;;;;6.30;5.68;;;;;;;35.44;42.77;99666.41;261329;1107;102876;-72
2021/06/12 05:46:02;;;;;;;5.13;4.70;;;;;;;34.78;40.55;99660.67;260798;1108;103874;-73
2021/06/12 05:51:06;;;;;;;5.08;4.38;;;;;;;34.45;39.33;99651.64;261121;1107;103052;-73
2021/06/12 05:56:10;;;;;;;7.30;5.10;;;;;;;34.25;38.54;99650.42;260503;1108;103042;-74
2021/06/12 06:01:15;;;;;;;5.23;4.73;;;;;;;33.11;37.77;99646.63;260152;1107;102999;-73
2021/06/12 06:06:19;;;;;;;4.43;4.13;;;;;;;31.88;38.88;99647.31;260567;1103;103262;-73
2021/06/12 06:11:24;;;;;;;4.70;4.33;;;;;;;30.20;40.20;99654.53;261027;1107;103419;-73
2021/06/12 06:16:31;;;;;;;5.65;5.15;;;;;;;29.25;40.92;99659.80;260988;1107;102962;-73
2021/06/12 06:21:36;;;;;;;5.95;5.53;;;;;;;28.44;41.34;99657.59;259825;1107;103014;-72
2021/06/12 06:26:41;;;;;;;6.80;6.25;;;;;;;27.88;43.17;99653.42;260604;1107;102961;-73
2021/06/12 06:31:46;;;;;;;7.30;6.65;;;;;;;28.08;43.47;99647.70;260759;1107;102993;-73
2021/06/12 06:36:50;;;;;;;5.65;5.08;;;;;;;30.14;42.42;99652.08;260753;1103;103473;-73
2021/06/12 06:41:55;;;;;;;15.40;5.38;;;;;;;31.53;40.49;99648.51;260316;1107;103055;-74
2021/06/12 06:47:00;;;;;;;7.85;5.88;;;;;;;30.75;39.82;99647.53;262002;1107;102280;-73
2021/06/12 06:52:05;;;;;;;5.30;4.95;;;;;;;30.80;40.22;99638.95;262069;1107;103466;-75
2021/06/12 06:57:09;;;;;;;4.73;4.30;;;;;;;32.59;39.28;99634.11;262577;1107;102495;-75
2021/06/12 07:02:13;;;;;;;5.25;4.53;;;;;;;34.11;36.99;99634.64;262545;1107;103222;-75
2021/06/12 07:07:18;;;;;;;5.18;4.58;;;;;;;34.91;35.40;99639.67;262006;1107;101314;-75
2021/06/12 07:12:23;;;;;;;4.68;4.38;;;;;;;34.28;34.92;99624.73;261090;1107;102972;-74
2021/06/12 07:17:28;;;;;;;5.58;4.53;;;;;;;34.08;34.87;99621.59;261582;1107;103058;-76
2021/06/12 07:22:34;;;;;;;4.78;4.43;;;;;;;33.76;34.75;99613.27;262395;1107;103040;-75
2021/06/12 07:27:39;;;;;;;4.50;4.20;;;;;;;32.50;34.04;99604.09;261559;1103;102946;-76
2021/06/12 07:32:45;;;;;;;4.20;3.90;;;;;;;31.38;35.02;99592.48;261528;1107;103102;-75
2021/06/12 07:37:50;;;;;;;7.78;4.45;;;;;;;30.45;36.78;99595.99;260657;1107;102993;-75
2021/06/12 07:42:56;;;;;;;15.73;4.85;;;;;;;30.59;36.79;99572.61;259956;1103;102966;-74
2021/06/12 07:48:04;;;;;;;6.35;4.35;;;;;;;30.39;36.94;99575.47;259987;1108;103428;-75
2021/06/12 07:53:10;;;;;;;5.05;4.75;;;;;;;30.21;37.68;99568.93;260058;1107;103514;-75
2021/06/12 07:58:14;;;;;;;7.03;5.58;;;;;;;29.81;37.56;99572.19;260751;1107;103176;-75
2021/06/12 08:03:19;;;;;;;7.48;5.50;;;;;;;29.50;38.13;99562.23;260794;1103;103091;-72
2021/06/12 08:08:25;;;;;;;5.08;4.78;;;;;;;29.64;38.58;99564.45;260133;1107;103214;-74
2021/06/12 08:13:28;;;;;;;5.30;4.88;;;;;;;29.77;39.05;99558.39;260225;1108;102959;-75
2021/06/12 08:18:33;;;;;;;4.70;4.40;;;;;;;29.96;38.64;99564.98;260046;1107;103047;-75
2021/06/12 08:23:38;;;;;;;5.68;5.30;;;;;;;29.83;38.30;99567.91;260175;1107;103065;-75
2021/06/12 08:28:42;;;;;;;5.77;5.30;;;;;;;29.61;38.96;99556.94;260712;1107;103059;-75
2021/06/12 08:33:47;;;;;;;5.53;5.13;;;;;;;29.18;38.91;99555.33;260008;1107;103077;-75
2021/06/12 08:38:51;;;;;;;5.03;4.63;;;;;;;28.95;39.03;99547.85;259920;1107;102993;-75
2021/06/12 08:43:59;;;;;;;4.93;4.53;;;;;;;28.94;39.04;99549.00;260032;1108;103043;-75
2021/06/12 08:49:03;;;;;;;4.78;4.48;;;;;;;28.98;38.77;99544.38;260698;1107;103505;-73
2021/06/12 08:54:09;;;;;;;5.05;4.23;;;;;;;28.62;39.25;99544.78;259996;1107;103014;-75
2021/06/12 08:59:15;;;;;;;5.38;4.90;;;;;;;28.91;39.33;99538.75;260327;1107;103106;-75
2021/06/12 09:04:27;;;;;;;2.58;2.48;;;;;;;29.64;38.70;99532.28;261212;1107;102981;-76
2021/06/12 09:09:42;;;;;;;4.40;4.03;;;;;;;29.31;37.55;99532.85;261225;1107;106031;-71
2021/06/12 09:15:09;;;;;;;6.00;4.28;;;;;;;28.41;38.07;99523.20;261416;1107;103085;-75
2021/06/12 09:20:42;;;;;;;4.43;4.00;;;;;;;27.75;38.79;99522.05;262700;1107;101971;-76
2021/06/12 09:25:49;;;;;;;5.60;4.40;;;;;;;27.56;39.48;99519.17;261996;1107;102934;-76
2021/06/12 09:30:53;;;;;;;5.38;4.98;;;;;;;28.03;40.16;99508.23;262573;1108;102642;-74
2021/06/12 09:36:06;;;;;;;4.73;4.43;;;;;;;28.67;39.90;99498.67;261462;1103;102959;-75
2021/06/12 09:41:28;;;;;;;6.35;4.63;;;;;;;28.92;39.58;99499.19;261206;1107;103035;-74
2021/06/12 09:46:36;;;;;;;4.55;3.95;;;;;;;28.98;39.58;99496.94;260909;1107;103062;-74
2021/06/12 09:52:01;;;;;;;5.40;4.88;;;;;;;29.20;38.85;99487.14;260871;1107;103058;-75
2021/06/12 09:57:07;;;;;;;7.65;4.90;;;;;;;29.61;39.61;99458.85;260003;1107;103070;-75
2021/06/12 10:02:13;;;;;;;5.63;5.10;;;;;;;29.38;37.67;99461.56;260291;1107;102959;-73
2021/06/12 10:07:18;;;;;;;4.33;4.10;;;;;;;28.75;38.63;99459.23;260398;1103;103122;-75
2021/06/12 10:12:23;;;;;;;5.33;4.83;;;;;;;28.79;39.41;99464.79;260091;1103;102970;-74
2021/06/12 10:17:28;;;;;;;5.95;5.13;;;;;;;28.56;38.50;99453.77;260189;1108;102965;-75
2021/06/12 10:22:33;;;;;;;4.93;4.53;;;;;;;28.52;38.98;99444.67;260186;1107;103723;-73
2021/06/12 10:27:40;;;;;;;3.80;3.25;;;;;;;28.83;39.20;99432.77;260076;1102;102931;-74
2021/06/12 10:32:48;;;;;;;7.65;4.20;;;;;;;29.44;39.03;99410.70;260105;1103;102964;-74
2021/06/12 10:37:55;;;;;;;6.33;5.10;;;;;;;29.83;38.60;99403.05;260109;1107;103549;-75
2021/06/12 10:43:07;;;;;;;3.63;3.38;;;;;;;30.12;36.98;99408.95;259976;1107;102958;-73
2021/06/12 10:48:52;;;;;;;4.38;3.85;;;;;;;29.95;37.06;99395.75;260771;1107;102971;-75
2021/06/12 10:59:34;;;;;;;4.33;3.60;;;;;;;29.19;36.28;99382.04;261067;1107;102972;-71
2021/06/12 11:04:43;;;;;;;3.35;3.15;;;;;;;28.57;36.00;99377.78;260315;1107;103018;-73
2021/06/12 11:09:47;;;;;;;4.40;3.45;;;;;;;27.81;36.80;99358.23;262596;1107;101617;-75
2021/06/12 11:14:59;;;;;;;8.53;3.98;;;;;;;27.32;37.38;99355.13;261279;1107;103107;-74
2021/06/12 11:20:04;;;;;;;10.73;4.08;;;;;;;26.92;37.62;99350.61;262407;1107;102988;-74
2021/06/12 11:25:11;;;;;;;4.90;4.13;;;;;;;26.47;38.79;99351.81;262224;1107;103368;-74
2021/06/12 11:35:46;;;;;;;4.73;4.08;;;;;;;26.15;39.51;99372.77;261441;1107;102929;-73
2021/06/12 11:40:59;;;;;;;4.45;4.08;;;;;;;25.98;40.17;99355.88;260698;1107;102939;-73
2021/06/12 11:46:08;;;;;;;4.23;3.93;;;;;;;25.78;40.58;99355.69;259951;1107;103059;-73
2021/06/12 11:51:25;;;;;;;7.90;5.15;;;;;;;25.62;40.62;99359.45;261121;1107;103212;-73
2021/06/12 11:56:49;;;;;;;5.90;5.40;;;;;;;25.18;42.80;99357.31;260859;1107;103206;-74
2021/06/12 12:02:05;;;;;;;7.30;5.90;;;;;;;24.56;44.04;99357.52;261728;1107;102965;-74
2021/06/12 12:07:12;;;;;;;6.95;6.25;;;;;;;24.17;45.47;99367.79;260514;1107;104755;-72
2021/06/12 12:12:22;;;;;;;6.30;5.90;;;;;;;23.93;46.54;99367.67;261260;1107;103141;-73
2021/06/12 12:17:31;;;;;;;7.08;6.58;;;;;;;23.78;47.11;99371.80;260248;1103;102960;-73
2021/06/12 12:22:40;;;;;;;7.75;6.88;;;;;;;23.69;47.53;99371.05;260788;1107;103062;-73
2021/06/12 12:28:00;;;;;;;6.93;6.23;;;;;;;23.57;48.11;99365.52;260646;1107;102965;-73
2021/06/12 12:33:07;;;;;;;7.25;6.55;;;;;;;23.52;49.14;99371.15;260501;1107;103011;-73
2021/06/12 12:38:23;;;;;;;7.58;6.68;;;;;;;23.44;49.34;99364.63;260665;1107;103081;-72
2021/06/12 12:43:29;;;;;;;9.43;8.03;;;;;;;23.23;50.23;99362.98;259989;1102;103072;-73
2021/06/12 12:48:35;;;;;;;10.05;7.75;;;;;;;23.13;50.96;99351.34;259880;1107;102963;-72
2021/06/12 12:53:41;;;;;;;9.95;6.43;;;;;;;23.18;51.66;99353.09;260855;1107;103062;-72
2021/06/12 12:58:50;;;;;;;7.70;6.80;;;;;;;23.21;52.02;99344.28;260897;1107;103068;-73
2021/06/12 13:03:56;;;;;;;7.25;6.55;;;;;;;23.34;52.36;99347.88;262011;1106;103020;-71
2021/06/12 13:09:19;;;;;;;9.40;6.95;;;;;;;23.45;52.43;99340.94;261675;1107;103169;-73
2021/06/12 13:14:24;;;;;;;6.90;6.15;;;;;;;23.49;52.07;99345.39;261625;1107;103072;-73
2021/06/12 13:20:02;;;;;;;7.33;6.80;;;;;;;23.60;52.01;99336.86;261635;1107;103436;-73
2021/06/12 13:25:13;;;;;;;7.40;6.68;;;;;;;23.70;51.93;99331.83;262458;1107;101226;-78
2021/06/12 13:30:18;;;;;;;7.90;7.30;;;;;;;23.71;52.15;99324.47;262615;1107;101169;-73
2021/06/12 13:36:00;;;;;;;;;;;;;;;23.69;52.25;99327.52;262608;1107;101031;-77
2021/06/12 13:41:12;;;;;;;9.10;7.63;;;;;;;23.56;52.10;99320.39;260755;1107;102956;-75
2021/06/12 13:46:19;;;;;;;9.15;8.23;;;;;;;23.36;52.29;99305.63;261776;1107;102911;-77
2021/06/12 13:51:24;;;;;;;9.78;8.78;;;;;;;23.18;52.74;99301.42;261119;1107;102942;-71
2021/06/12 13:56:32;;;;;;;12.30;9.43;;;;;;;23.16;53.08;99290.08;261432;1106;102951;-75
2021/06/12 14:01:39;;;;;;;13.48;9.43;;;;;;;23.20;53.47;99282.86;260768;1107;102977;-71
2021/06/12 14:06:45;;;;;;;9.65;8.78;;;;;;;23.23;53.78;99278.69;261096;1107;103277;-74
2021/06/12 14:11:49;;;;;;;8.83;8.03;;;;;;;23.20;53.78;99263.03;261344;1107;102975;-73
2021/06/12 14:16:55;;;;;;;9.65;8.85;;;;;;;23.13;53.70;99253.47;261250;1107;103067;-73
2021/06/12 14:22:01;;;;;;;10.38;8.55;;;;;;;22.96;53.87;99250.83;260240;1107;102988;-73
2021/06/12 14:41:21;;;;;;;11.75;8.65;;;;;;;22.47;54.65;99249.59;261164;1103;103046;-73
2021/06/12 14:46:27;;;;;;;11.70;10.18;;;;;;;22.21;55.28;99254.31;260895;1107;102974;-72
2021/06/12 14:51:33;;;;;;;11.40;10.40;;;;;;;21.90;56.69;99235.50;260577;1107;103388;-73
2021/06/12 14:56:41;;;;;;;11.58;10.38;;;;;;;21.60;57.64;99232.66;260740;1107;102970;-73
2021/06/12 15:01:46;;;;;;;11.73;10.63;;;;;;;21.46;58.60;99223.87;261127;1107;102978;-72
2021/06/12 15:06:51;;;;;;;11.30;10.43;;;;;;;21.37;59.32;99214.95;260029;1107;103099;-72
2021/06/12 15:11:56;;;;;;;13.40;12.08;;;;;;;21.25;59.98;99225.62;260583;1107;103491;-74
2021/06/12 15:17:01;;;;;;;14.33;12.88;;;;;;;21.13;60.47;99224.28;260709;1107;103027;-71
2021/06/12 15:22:06;;;;;;;12.83;11.73;;;;;;;21.03;61.12;99218.39;260583;1107;102960;-74
2021/06/12 15:27:11;;;;;;;14.58;13.08;;;;;;;20.98;61.66;99215.83;260486;1107;102967;-70
2021/06/12 15:32:17;;;;;;;13.63;12.43;;;;;;;20.95;61.94;99200.19;260027;1107;103067;-71
2021/06/12 15:37:22;;;;;;;12.58;11.38;;;;;;;20.90;62.36;99201.14;260001;1107;102942;-70
2021/06/12 15:42:28;;;;;;;14.03;11.28;;;;;;;20.85;62.54;99185.03;260228;1107;103042;-71
2021/06/12 15:47:33;;;;;;;11.60;10.58;;;;;;;20.81;62.57;99189.47;260272;1107;103030;-70
2021/06/12 15:52:38;;;;;;;12.90;11.40;;;;;;;20.67;62.86;99189.61;260483;1107;103098;-70
2021/06/12 15:57:46;;;;;;;12.13;10.93;;;;;;;20.52;63.45;99173.78;261139;1107;102940;-71
2021/06/12 16:02:54;;;;;;;13.45;12.03;;;;;;;20.38;63.85;99181.23;262629;1107;102641;-77
2021/06/12 17:41:26;;;;;;;1.28;1.28;;;;;;;16.33;69.48;99300.70;262242;1093;102757;-74
2021/06/12 17:46:29;;;;;;;7.43;2.20;;;;;;;16.31;69.29;99306.36;255025;1104;115280;-71
2021/06/12 17:51:35;;;;;;;2.13;1.63;;;;;;;16.34;69.72;99313.87;254199;1104;116296;-72
2021/06/12 17:56:39;;;;;;;;;;;;;;;16.38;70.00;99292.59;255795;1104;115476;-74
2021/06/12 18:01:42;;;;;;;3.08;2.85;;;;;;;16.38;70.24;99297.97;255424;1104;103079;-73
2021/06/12 18:06:45;;;;;;;3.35;2.30;;;;;;;16.37;70.10;99297.16;256033;1098;116443;-73
2021/06/12 18:11:48;;;;;;;3.30;3.00;;;;;;;16.42;70.13;99315.15;256881;1104;114684;-75
2021/06/12 18:16:52;;;;;;;4.95;2.93;;;;;;;16.39;70.55;99324.59;254102;1104;114659;-74
2021/06/12 18:21:57;;;;;;;5.93;3.20;;;;;;;16.33;70.58;99323.02;257109;1104;114904;-73
2021/06/12 18:32:03;;;;;;;3.53;3.30;;;;;;;16.25;70.44;99320.93;262098;1093;101800;-74
2021/06/12 18:37:08;;;;;;;3.87;3.57;;;;;;;16.24;70.45;99327.39;256625;1104;116742;-71
2021/06/12 18:42:12;;;;;;;8.43;3.75;;;;;;;16.26;70.87;99335.98;254827;1099;115360;-74
2021/06/12 18:47:19;;;;;;;5.27;4.87;;;;;;;16.21;70.97;99336.02;254875;1104;138306;-74
2021/06/12 18:52:22;;;;;;;10.20;4.25;;;;;;;16.24;70.95;99334.66;254422;1104;115924;-75
2021/06/12 18:57:26;;;;;;;4.48;3.93;;;;;;;16.21;71.16;99348.66;256342;1104;114862;-71
2021/06/12 19:02:30;;;;;;;6.25;4.45;;;;;;;16.15;70.89;99356.80;254899;1104;115472;-69
2021/06/12 19:07:34;;;;;;;5.08;4.58;;;;;;;16.05;71.18;99364.92;254407;1104;114900;-74
2021/06/12 19:12:39;;;;;;;4.85;3.95;;;;;;;16.04;71.20;99374.07;254352;1104;114551;-73
2021/06/12 19:17:44;;;;;;;7.60;5.33;;;;;;;16.04;71.39;99379.45;254322;1098;115941;-72
2021/06/12 19:22:48;;;;;;;6.13;5.58;;;;;;;16.00;71.76;99377.59;254325;1104;114826;-76
2021/06/12 19:27:52;;;;;;;5.17;4.77;;;;;;;15.92;71.44;99380.86;255324;1104;115068;-70
2021/06/12 19:32:57;;;;;;;6.73;4.23;;;;;;;15.89;71.54;99395.69;254482;1104;115643;-71
2021/06/12 19:43:18;;;;;;;5.88;4.80;;;;;;;15.72;72.03;99409.47;254244;1104;115205;-76
2021/06/12 19:48:21;;;;;;;4.78;4.38;;;;;;;15.63;72.10;99424.55;254473;1104;118098;-74
2021/06/12 19:53:37;;;;;;;5.37;4.87;;;;;;;15.56;71.89;99421.38;254445;1104;115766;-74
2021/06/12 19:58:43;;;;;;;7.58;5.15;;;;;;;15.42;72.18;99431.05;255396;1104;114550;-73
2021/06/12 20:03:47;;;;;;;5.68;4.43;;;;;;;15.28;72.19;99433.52;256345;1104;115563;-71
2021/06/12 20:08:51;;;;;;;5.33;4.78;;;;;;;15.22;71.93;99437.29;254483;1104;115993;-74
2021/06/12 20:13:58;;;;;;;9.38;5.35;;;;;;;15.15;71.72;99439.45;254378;1100;114678;-76
2021/06/12 20:19:01;;;;;;;;;;;;;;;15.05;71.96;99442.95;256730;1104;116176;-71
2021/06/12 20:24:05;;;;;;;4.13;3.83;;;;;;;14.94;72.05;99444.05;257588;1104;102957;-75
2021/06/12 20:29:09;;;;;;;4.60;4.30;;;;;;;14.90;72.31;99445.66;257403;1104;115125;-73
2021/06/12 20:34:16;;;;;;;5.83;5.10;;;;;;;14.83;71.65;99439.76;256330;1104;114150;-70
2021/06/12 20:39:24;;;;;;;6.17;4.20;;;;;;;14.73;72.03;99459.34;257331;1104;114938;-70
2021/06/12 20:44:28;;;;;;;5.37;4.37;;;;;;;14.62;71.37;99462.30;256892;1104;115702;-71
2021/06/12 20:49:32;;;;;;;6.07;4.40;;;;;;;14.58;72.20;99471.95;256784;1100;114566;-72
2021/06/12 20:54:37;;;;;;;8.73;4.90;;;;;;;14.55;71.76;99475.17;256084;1099;116053;-75
2021/06/12 20:59:41;;;;;;;5.23;4.68;;;;;;;14.47;72.36;99466.57;255553;1104;115753;-72
2021/06/12 21:04:45;;;;;;;5.18;3.95;;;;;;;14.32;72.41;99477.26;254527;1104;116678;-74
2021/06/12 21:09:49;;;;;;;5.05;3.60;;;;;;;14.25;71.98;99475.89;255377;1104;115155;-74
2021/06/12 21:14:52;;;;;;;7.50;6.60;;;;;;;14.10;72.56;99477.45;255419;1104;115221;-70
2021/06/12 21:19:55;;;;;;;8.10;4.57;;;;;;;13.96;72.36;99471.00;255738;1104;115452;-75
2021/06/12 21:25:00;;;;;;;7.50;4.15;;;;;;;13.94;73.20;99483.05;254419;1104;115537;-71
2021/06/12 21:30:05;;;;;;;5.87;4.57;;;;;;;13.94;73.65;99486.53;254904;1098;114783;-73
2021/06/12 21:35:10;;;;;;;3.38;3.18;;;;;;;13.92;73.05;99493.22;254923;1104;115296;-72
2021/06/12 21:40:21;;;;;;;5.50;3.63;;;;;;;13.86;73.60;99510.33;255132;1099;115785;-70
2021/06/12 21:45:28;;;;;;;6.57;4.77;;;;;;;13.78;73.45;99520.47;254881;1104;114669;-70
2021/06/12 21:50:32;;;;;;;7.63;3.48;;;;;;;13.76;73.91;99513.77;255207;1104;115584;-70
2021/06/12 21:55:35;;;;;;;5.95;4.90;;;;;;;13.68;73.62;99520.45;254862;1104;117672;-70
2021/06/12 22:00:59;;;;;;;7.33;4.70;;;;;;;13.60;73.85;99502.19;254380;1104;115870;-70
2021/06/12 22:06:07;;;;;;;4.03;3.73;;;;;;;13.60;74.17;99528.97;254216;1104;115478;-70
2021/06/12 22:11:11;;;;;;;5.20;3.30;;;;;;;13.68;74.03;99528.48;254545;1100;114905;-71
2021/06/12 22:16:14;;;;;;;4.55;3.18;;;;;;;13.73;74.17;99531.19;254283;1104;114859;-72
2021/06/12 22:21:41;;;;;;;3.67;3.27;;;;;;;13.75;74.19;99541.65;254548;1104;114978;-72
2021/06/12 22:26:46;;;;;;;6.55;4.13;;;;;;;13.79;74.17;99538.16;254981;1104;114638;-74
2021/06/12 22:31:50;;;;;;;5.55;4.40;;;;;;;13.79;73.73;99543.52;256426;1104;114396;-71
2021/06/12 22:36:53;;;;;;;5.10;3.67;;;;;;;13.83;74.10;99549.17;257284;1104;115093;-71
2021/06/12 22:42:02;;;;;;;4.83;3.13;;;;;;;13.85;73.97;99557.75;257365;1104;115110;-70
2021/06/12 22:47:06;;;;;;;4.53;2.93;;;;;;;13.90;74.17;99565.02;257491;1104;114287;-71
2021/06/12 22:52:10;;;;;;;3.53;3.25;;;;;;;13.89;73.47;99571.44;256902;1104;114264;-72
2021/06/12 22:57:13;;;;;;;6.50;2.83;;;;;;;13.87;74.21;99576.25;254493;1104;117220;-72
2021/06/12 23:02:17;;;;;;;6.98;3.78;;;;;;;13.81;74.02;99588.81;254659;1104;116007;-73
2021/06/12 23:07:20;;;;;;;4.33;3.85;;;;;;;13.76;73.79;99597.62;254606;1104;212065;-73
2021/06/12 23:12:24;;;;;;;8.33;3.60;;;;;;;13.72;73.82;99585.03;254947;1099;115260;-74
2021/06/12 23:17:27;;;;;;;4.85;3.23;;;;;;;13.65;73.70;99582.56;254531;1104;115181;-73
2021/06/12 23:22:30;;;;;;;9.78;4.23;;;;;;;13.56;73.95;99596.69;254558;1104;114904;-73
2021/06/12 23:27:34;;;;;;;5.30;3.23;;;;;;;13.47;73.96;99593.67;254444;1104;115236;-71
2021/06/12 23:32:38;;;;;;;6.20;3.13;;;;;;;13.40;73.90;99596.59;254909;1104;114871;-72
2021/06/12 23:37:48;;;;;;;6.83;4.18;;;;;;;13.33;74.27;99604.03;254509;1104;115210;-72
2021/06/12 23:42:51;;;;;;;3.80;3.30;;;;;;;13.22;74.01;99604.19;254515;1103;115384;-73
2021/06/12 23:47:58;;;;;;;13.38;4.33;;;;;;;13.13;74.02;99610.00;254510;1104;134748;-72
2021/06/12 23:53:02;;;;;;;5.58;2.78;;;;;;;13.07;74.19;99604.84;255577;1104;114346;-73
2021/06/12 23:58:05;;;;;;;7.23;3.63;;;;;;;13.02;74.17;99613.63;254607;1104;114580;-75
